Time;durP1;ratioP1;P1;durP2;ratioP2;P2;SDS_P1;SDS_P2;PMS_P1;PMS_P2;Temp;Humidity;BMP_temperature;BMP_pressure;BME280_temperature;BME280_humidity;BME280_pressure;Samples;Min_cycle;Max_cycle;Signal;HPM_P1;HPM_P2
2021/04/06 00:00:45;;;;;;;6.75;2.92;;;;;;;-2.30;91.65;95383.59;5012870;28;20069;-55
2021/04/06 00:03:16;;;;;;;7.90;2.80;;;;;;;-2.44;90.49;95378.81;4996473;28;20057;-55
2021/04/06 00:06:00;;;;;;;5.18;2.60;;;;;;;-2.47;90.75;95370.59;5009788;28;20656;-53
2021/04/06 00:08:27;;;;;;;5.53;3.22;;;;;;;-2.48;91.40;95372.44;5010251;28;20045;-56
2021/04/06 00:10:57;;;;;;;6.35;2.70;;;;;;;-2.38;92.30;95363.72;5011174;28;20084;-53
2021/04/06 00:13:28;;;;;;;5.95;2.42;;;;;;;-2.32;88.83;95360.00;5010771;28;20072;-51
2021/04/06 00:15:55;;;;;;;7.15;3.03;;;;;;;-2.41;90.30;95358.94;5004825;28;20408;-54
2021/04/06 00:18:23;;;;;;;5.18;2.70;;;;;;;-2.44;91.39;95362.94;5014378;28;20058;-55
2021/04/06 00:20:51;;;;;;;4.95;2.60;;;;;;;-2.41;89.96;95364.25;5011702;28;20462;-56
2021/04/06 00:23:19;;;;;;;6.40;2.55;;;;;;;-2.62;91.73;95350.97;5009269;28;20096;-57
2021/04/06 00:25:49;;;;;;;4.80;2.63;;;;;;;-2.47;91.40;95349.41;5008726;28;20068;-52
2021/04/06 00:28:25;;;;;;;5.50;2.78;;;;;;;-2.59;91.36;95345.16;5010104;28;20364;-53
2021/04/06 00:30:54;;;;;;;5.32;2.55;;;;;;;-2.52;91.56;95349.41;5009078;28;20064;-58
2021/04/06 00:33:25;;;;;;;7.05;2.80;;;;;;;-2.44;90.32;95352.34;5003616;28;20050;-56
2021/04/06 00:35:56;;;;;;;4.80;2.53;;;;;;;-2.60;88.83;95343.56;5011171;28;20056;-53
2021/04/06 00:38:27;;;;;;;7.90;2.55;;;;;;;-2.60;89.37;95348.88;5005882;28;20470;-55
2021/04/06 00:40:59;;;;;;;5.90;2.80;;;;;;;-2.52;90.20;95350.19;5009963;28;20050;-52
2021/04/06 00:43:36;;;;;;;6.10;2.63;;;;;;;-2.70;90.04;95330.31;5010986;28;20389;-53
2021/04/06 00:46:06;;;;;;;5.57;2.45;;;;;;;-2.47;87.63;95331.66;5003517;28;20054;-53
2021/04/06 00:48:33;;;;;;;4.13;2.42;;;;;;;-2.63;88.14;95338.81;5004698;28;20444;-57
2021/04/06 00:51:22;;;;;;;4.55;2.25;;;;;;;-2.59;86.36;95323.97;5010175;28;20419;-55
2021/04/06 00:53:54;;;;;;;5.05;2.33;;;;;;;-2.71;89.30;95330.56;5008089;28;20518;-55
2021/04/06 00:56:33;;;;;;;4.25;2.17;;;;;;;-2.64;89.18;95331.91;5011457;28;20049;-52
2021/04/06 00:59:05;;;;;;;5.20;2.50;;;;;;;-2.62;88.64;95332.44;5007798;28;20526;-54
2021/04/06 01:01:42;;;;;;;4.93;2.40;;;;;;;-2.74;87.72;95337.19;5001677;28;20061;-53
2021/04/06 01:04:17;;;;;;;7.85;2.85;;;;;;;-2.90;87.76;95325.78;4997378;28;20057;-52
2021/04/06 01:07:07;;;;;;;7.97;2.42;;;;;;;-2.99;88.41;95329.19;5006791;28;20096;-51
2021/04/06 01:09:54;;;;;;;6.30;2.67;;;;;;;-2.93;89.68;95325.50;5001431;28;20057;-54
2021/04/06 01:12:26;;;;;;;7.03;2.55;;;;;;;-2.87;88.67;95324.47;5012510;28;20054;-53
2021/04/06 01:14:53;;;;;;;11.65;2.80;;;;;;;-2.77;87.51;95327.13;5011313;28;20098;-54
2021/04/06 01:17:24;;;;;;;6.25;2.60;;;;;;;-2.70;87.91;95330.31;4998974;28;20054;-51
2021/04/06 01:19:50;;;;;;;5.40;2.40;;;;;;;-2.60;87.62;95324.22;5010418;28;20050;-52
2021/04/06 01:22:18;;;;;;;8.90;2.55;;;;;;;-2.56;88.56;95322.66;5011024;28;20108;-52
2021/04/06 01:24:45;;;;;;;7.60;2.55;;;;;;;-2.61;90.03;95326.06;5013401;28;20076;-54
2021/04/06 01:27:15;;;;;;;4.55;2.53;;;;;;;-2.52;89.48;95329.00;5003952;28;20050;-52
2021/04/06 01:30:03;;;;;;;7.65;2.90;;;;;;;-2.42;88.42;95328.22;5009577;28;20058;-52
2021/04/06 01:32:30;;;;;;;4.05;2.70;;;;;;;-2.36;88.06;95329.81;5010548;28;20042;-52
2021/04/06 01:34:56;;;;;;;7.03;2.35;;;;;;;-2.32;87.55;95332.72;5008528;28;20064;-53
2021/04/06 01:37:25;;;;;;;7.20;2.80;;;;;;;-2.51;88.60;95324.50;5008037;28;20140;-56
2021/04/06 01:39:55;;;;;;;7.25;2.67;;;;;;;-2.51;88.28;95325.28;5009924;28;20089;-52
2021/04/06 01:42:26;;;;;;;4.78;2.60;;;;;;;-2.62;88.74;95318.41;5010181;28;20646;-54
2021/04/06 01:44:56;;;;;;;7.00;2.75;;;;;;;-2.67;89.27;95323.69;5011082;28;20479;-53
2021/04/06 01:47:24;;;;;;;6.93;2.80;;;;;;;-2.83;89.19;95323.69;5007930;28;20479;-54
2021/04/06 01:49:51;;;;;;;6.63;3.55;;;;;;;-2.63;88.26;95322.13;5010109;28;20112;-54
2021/04/06 01:52:18;;;;;;;5.93;2.58;;;;;;;-2.58;87.12;95322.13;5001735;28;20078;-52
2021/04/06 01:54:59;;;;;;;6.82;2.78;;;;;;;-2.65;88.75;95319.72;4991305;28;20558;-51
2021/04/06 01:57:33;;;;;;;5.07;2.58;;;;;;;-2.65;86.30;95314.44;5006249;28;20112;-50
2021/04/06 02:00:10;;;;;;;9.35;2.95;;;;;;;-2.71;86.81;95310.19;5010179;28;20061;-54
2021/04/06 02:02:46;;;;;;;6.03;2.70;;;;;;;-2.65;87.40;95305.69;5003567;28;20050;-53
2021/04/06 02:05:14;;;;;;;6.05;2.75;;;;;;;-2.86;87.45;95308.31;5014228;28;20158;-51
2021/04/06 02:07:44;;;;;;;6.05;2.60;;;;;;;-2.82;86.87;95303.31;5009512;28;20078;-53
2021/04/06 02:10:12;;;;;;;5.32;3.30;;;;;;;-2.82;88.16;95301.44;4996356;28;20488;-53
2021/04/06 02:12:43;;;;;;;9.60;3.80;;;;;;;-2.76;87.73;95298.78;5012314;28;20161;-51
2021/04/06 02:15:12;;;;;;;4.32;2.95;;;;;;;-2.73;89.21;95301.72;5014586;28;20507;-51
2021/04/06 02:17:53;;;;;;;5.43;3.53;;;;;;;-2.73;86.55;95304.38;5007249;28;20112;-52
2021/04/06 02:20:26;;;;;;;7.15;3.75;;;;;;;-2.76;87.14;95304.91;5011258;28;20057;-53
2021/04/06 02:23:02;;;;;;;9.05;3.13;;;;;;;-2.89;87.49;95298.25;5021600;28;20041;-54
2021/04/06 02:25:30;;;;;;;6.78;3.00;;;;;;;-2.81;85.84;95299.59;5011616;28;20054;-56
2021/04/06 02:27:58;;;;;;;7.78;2.97;;;;;;;-2.76;85.74;95296.97;5000010;28;20061;-52
2021/04/06 02:30:31;;;;;;;6.45;3.00;;;;;;;-2.78;88.20;95306.22;4993430;28;20487;-52
2021/04/06 02:32:59;;;;;;;8.48;3.17;;;;;;;-2.82;87.39;95303.31;5014630;28;20057;-53
2021/04/06 02:35:26;;;;;;;5.95;3.00;;;;;;;-2.75;88.60;95295.88;5012908;28;20053;-54
2021/04/06 02:37:53;;;;;;;6.85;3.22;;;;;;;-2.69;86.95;95294.06;5009369;28;20402;-49
2021/04/06 02:40:22;;;;;;;6.30;3.20;;;;;;;-2.63;85.72;95306.25;5013248;28;20050;-55
2021/04/06 02:42:50;;;;;;;8.05;3.33;;;;;;;-2.76;86.77;95299.59;5012315;28;20042;-54
2021/04/06 02:45:20;;;;;;;4.60;3.13;;;;;;;-2.70;86.74;95289.78;5013426;28;20057;-50
2021/04/06 02:47:52;;;;;;;5.03;3.15;;;;;;;-2.76;87.90;95293.50;5006213;28;20464;-52
2021/04/06 02:50:24;;;;;;;5.13;3.50;;;;;;;-2.78;86.73;95299.06;5012398;28;20046;-50
2021/04/06 02:52:52;;;;;;;6.95;3.50;;;;;;;-2.84;86.99;95294.81;5012366;28;20507;-55
2021/04/06 02:55:21;;;;;;;9.63;3.45;;;;;;;-2.91;86.27;95279.19;5009884;28;20058;-53
2021/04/06 02:57:50;;;;;;;5.13;3.35;;;;;;;-2.93;86.67;95291.88;5011625;28;20496;-53
2021/04/06 03:00:28;;;;;;;5.40;3.00;;;;;;;-2.87;86.69;95298.00;5012377;28;20157;-53
2021/04/06 03:02:57;;;;;;;7.45;3.25;;;;;;;-2.90;87.36;95290.56;5012533;28;20053;-51
2021/04/06 03:05:39;;;;;;;12.00;3.78;;;;;;;-2.92;87.33;95293.50;4995601;28;20101;-50
2021/04/06 03:08:06;;;;;;;6.47;3.17;;;;;;;-3.00;85.81;95288.69;5001641;28;20057;-52
2021/04/06 03:10:35;;;;;;;6.07;3.38;;;;;;;-3.02;86.31;95290.00;5011433;28;20049;-55
2021/04/06 03:13:11;;;;;;;5.38;3.20;;;;;;;-3.03;87.13;95291.06;5010695;28;20464;-50
2021/04/06 03:15:39;;;;;;;8.10;3.60;;;;;;;-2.98;86.63;95291.09;5011656;28;20504;-54
2021/04/06 03:18:06;;;;;;;7.20;3.40;;;;;;;-3.09;87.66;95290.25;5011747;28;20057;-51
2021/04/06 03:20:35;;;;;;;6.43;3.47;;;;;;;-3.04;86.20;95290.28;5012488;28;20053;-52
2021/04/06 03:23:04;;;;;;;6.07;3.75;;;;;;;-3.00;86.22;95296.63;5013536;28;20046;-51
2021/04/06 03:25:36;;;;;;;8.30;3.50;;;;;;;-3.02;86.26;95295.31;5010875;28;20062;-51
2021/04/06 03:28:08;;;;;;;8.90;3.95;;;;;;;-3.11;87.67;95290.53;5012649;28;20108;-53
2021/04/06 03:30:35;;;;;;;6.18;3.60;;;;;;;-3.03;89.08;95291.06;5011649;28;20054;-53
2021/04/06 03:33:12;;;;;;;7.18;3.80;;;;;;;-2.97;87.50;95295.31;5004646;28;20524;-54
2021/04/06 03:35:40;;;;;;;4.55;3.05;;;;;;;-3.00;87.29;95291.34;5012919;28;20180;-52
2021/04/06 03:38:09;;;;;;;7.75;3.60;;;;;;;-2.99;86.61;95289.50;5004767;28;20120;-53
2021/04/06 03:40:38;;;;;;;5.47;3.50;;;;;;;-2.99;88.12;95287.66;5030846;28;20068;-49
2021/04/06 03:43:21;;;;;;;7.40;3.38;;;;;;;-2.85;86.50;95274.72;5021348;28;20056;-51
2021/04/06 03:45:53;;;;;;;6.13;3.13;;;;;;;-2.93;85.44;95275.22;5008195;28;20069;-51
2021/04/06 03:48:20;;;;;;;6.20;3.30;;;;;;;-3.07;86.28;95283.66;5006854;28;20065;-55
2021/04/06 03:50:47;;;;;;;5.97;2.83;;;;;;;-3.09;86.33;95277.03;5011332;28;20057;-52
2021/04/06 03:53:14;;;;;;;8.23;3.53;;;;;;;-3.01;85.74;95267.81;5011562;28;20198;-53
2021/04/06 03:55:42;;;;;;;6.45;3.25;;;;;;;-3.08;85.71;95271.50;5009676;28;20480;-52
2021/04/06 04:00:40;;;;;;;5.65;3.70;;;;;;;-3.19;85.79;95261.94;5010058;28;20049;-50
2021/04/06 04:03:07;;;;;;;6.93;2.42;;;;;;;-3.38;86.40;95274.03;5011124;28;20041;-54
2021/04/06 04:05:37;;;;;;;5.88;2.95;;;;;;;-3.21;86.67;95272.00;5011567;28;20053;-51
2021/04/06 04:08:04;;;;;;;5.15;3.10;;;;;;;-3.17;86.13;95274.91;5005774;28;20097;-54
2021/04/06 04:10:30;;;;;;;7.45;2.70;;;;;;;-3.21;87.63;95264.06;5002140;28;20058;-53
2021/04/06 04:12:57;;;;;;;5.88;2.80;;;;;;;-3.29;87.75;95272.50;5011248;28;20053;-50
2021/04/06 04:15:24;;;;;;;5.20;2.67;;;;;;;-3.38;87.54;95274.03;5009288;28;20043;-52
2021/04/06 04:17:51;;;;;;;3.75;2.85;;;;;;;-3.43;87.01;95266.13;4999130;28;20492;-50
2021/04/06 04:20:23;;;;;;;6.78;2.88;;;;;;;-3.42;86.97;95267.69;4992113;28;20050;-53
2021/04/06 04:22:51;;;;;;;7.10;2.85;;;;;;;-3.48;87.90;95274.03;4999161;28;20447;-54
2021/04/06 04:25:19;;;;;;;6.70;3.00;;;;;;;-3.37;85.94;95260.59;5011012;28;20056;-52
2021/04/06 04:27:46;;;;;;;5.43;2.70;;;;;;;-3.45;87.96;95263.72;5001038;28;20046;-52
2021/04/06 04:30:14;;;;;;;6.70;2.78;;;;;;;-3.39;86.01;95257.38;5009957;28;20038;-50
2021/04/06 04:32:41;;;;;;;7.20;3.28;;;;;;;-3.56;88.15;95262.91;5011673;28;20065;-50
2021/04/06 04:35:08;;;;;;;6.68;2.78;;;;;;;-3.41;86.42;95264.81;4997610;28;20058;-51
2021/04/06 04:37:35;;;;;;;6.85;3.50;;;;;;;-3.47;86.67;95262.41;5007657;28;20046;-49
2021/04/06 04:40:03;;;;;;;6.32;2.97;;;;;;;-3.52;87.54;95265.81;4991651;28;20054;-51
2021/04/06 04:42:32;;;;;;;5.43;2.92;;;;;;;-3.41;87.13;95267.44;5013769;28;20041;-50
2021/04/06 04:44:58;;;;;;;8.20;3.17;;;;;;;-3.38;87.24;95258.19;5016935;28;20046;-51
2021/04/06 04:47:25;;;;;;;5.90;3.03;;;;;;;-3.35;85.41;95257.66;5001448;28;20046;-51
2021/04/06 04:49:51;;;;;;;5.75;3.22;;;;;;;-3.38;87.83;95255.53;5031721;23;20044;-54
2021/04/06 04:52:18;;;;;;;5.35;3.08;;;;;;;-3.41;85.94;95251.59;5030784;28;20428;-52
2021/04/06 04:54:44;;;;;;;5.65;3.20;;;;;;;-3.40;86.64;95252.38;5023701;28;20104;-53
2021/04/06 04:57:11;;;;;;;4.85;2.90;;;;;;;-3.50;86.53;95270.84;5011958;28;20053;-51
2021/04/06 04:59:37;;;;;;;6.97;2.90;;;;;;;-3.56;87.83;95268.19;5031260;28;20057;-51
2021/04/06 05:02:04;;;;;;;6.50;3.17;;;;;;;-3.56;89.55;95268.19;5017788;28;20367;-53
2021/04/06 05:04:31;;;;;;;5.03;3.17;;;;;;;-3.49;87.25;95267.16;5022303;28;20063;-53
2021/04/06 05:06:57;;;;;;;6.05;3.20;;;;;;;-3.38;85.84;95268.75;5011650;28;20391;-54
2021/04/06 05:09:24;;;;;;;7.38;2.83;;;;;;;-3.53;87.81;95272.97;5010607;28;20054;-54
2021/04/06 05:11:50;;;;;;;11.45;3.28;;;;;;;-3.53;87.86;95272.16;5011794;28;20496;-55
2021/04/06 05:14:17;;;;;;;7.47;2.78;;;;;;;-3.45;87.27;95261.06;5034199;28;20510;-53
2021/04/06 05:16:43;;;;;;;9.70;3.28;;;;;;;-3.38;87.01;95260.81;5029588;28;20064;-50
2021/04/06 05:19:10;;;;;;;4.72;3.00;;;;;;;-3.38;86.25;95259.00;5031410;28;20053;-51
2021/04/06 05:21:36;;;;;;;4.90;2.78;;;;;;;-3.34;86.18;95259.28;5031279;28;20049;-51
2021/04/06 05:24:03;;;;;;;5.53;3.08;;;;;;;-3.34;85.80;95265.34;5028612;28;20057;-52
2021/04/06 05:26:30;;;;;;;5.78;2.90;;;;;;;-3.35;85.76;95278.81;5027022;28;20053;-51
2021/04/06 05:28:56;;;;;;;4.93;2.75;;;;;;;-3.37;85.82;95267.72;5027174;28;20080;-50
2021/04/06 05:31:23;;;;;;;7.15;2.92;;;;;;;-3.26;85.15;95271.97;5019229;28;20054;-53
2021/04/06 05:33:54;;;;;;;5.88;2.88;;;;;;;-3.31;85.62;95266.69;5021708;28;20045;-50
2021/04/06 05:36:20;;;;;;;4.95;2.65;;;;;;;-3.31;85.65;95270.13;5011663;28;20056;-53
2021/04/06 05:38:47;;;;;;;4.63;2.60;;;;;;;-3.03;84.77;95269.91;5021445;28;20414;-52
2021/04/06 05:41:14;;;;;;;7.35;3.60;;;;;;;-2.94;84.12;95271.78;5035101;28;20095;-49
2021/04/06 05:43:42;;;;;;;6.38;3.10;;;;;;;-3.01;86.11;95275.75;5034349;28;20053;-53
2021/04/06 05:46:13;;;;;;;6.72;2.90;;;;;;;-3.07;84.88;95272.28;5022257;28;20053;-54
2021/04/06 05:48:42;;;;;;;7.45;3.00;;;;;;;-2.99;83.91;95279.72;5034820;28;20102;-54
2021/04/06 05:51:09;;;;;;;5.15;2.30;;;;;;;-3.04;83.34;95271.75;5030966;28;20061;-52
2021/04/06 05:53:35;;;;;;;7.47;2.90;;;;;;;-3.13;83.22;95278.63;5022032;28;20076;-53
2021/04/06 05:56:03;;;;;;;5.03;3.15;;;;;;;-3.15;84.61;95276.25;5022667;28;20047;-52
2021/04/06 05:58:29;;;;;;;8.85;3.45;;;;;;;-3.10;83.99;95280.75;5022570;28;20050;-55
2021/04/06 06:00:59;;;;;;;5.40;3.67;;;;;;;-2.99;83.89;95282.38;5022757;28;20042;-52
2021/04/06 06:03:26;;;;;;;4.03;2.65;;;;;;;-2.90;83.42;95278.13;5030968;28;20045;-53
2021/04/06 06:05:52;;;;;;;6.75;3.42;;;;;;;-2.80;81.59;95285.28;5033715;28;20480;-54
2021/04/06 06:08:19;;;;;;;7.35;3.13;;;;;;;-2.98;85.42;95280.50;5034763;28;20050;-54
2021/04/06 06:10:46;;;;;;;5.20;3.08;;;;;;;-2.94;83.88;95274.41;5035245;28;20053;-51
2021/04/06 06:13:17;;;;;;;5.13;3.33;;;;;;;-2.78;83.79;95277.88;5050597;28;20057;-55
2021/04/06 06:16:09;;;;;;;5.72;3.28;;;;;;;-2.75;81.69;95282.66;5034902;28;20053;-55
2021/04/06 06:19:03;;;;;;;4.50;3.00;;;;;;;-2.70;82.84;95281.84;5023517;28;20069;-51
2021/04/06 06:21:47;;;;;;;4.63;3.00;;;;;;;-2.66;81.21;95278.44;5014644;28;20081;-52
2021/04/06 06:24:27;;;;;;;4.90;3.00;;;;;;;-2.68;82.45;95280.53;5014672;28;20491;-54
2021/04/06 06:26:56;;;;;;;5.75;3.03;;;;;;;-2.69;81.54;95284.25;5026207;28;20053;-54
2021/04/06 06:29:41;;;;;;;5.43;2.90;;;;;;;-2.71;82.22;95265.16;5034188;28;20069;-50
2021/04/06 06:32:19;;;;;;;6.88;3.30;;;;;;;-2.61;80.71;95281.06;5033067;28;20045;-52
2021/04/06 06:34:47;;;;;;;9.07;3.17;;;;;;;-2.60;82.85;95274.72;5034260;28;20053;-54
2021/04/06 06:37:15;;;;;;;5.85;3.00;;;;;;;-2.55;80.35;95275.78;5024441;28;20057;-51
2021/04/06 06:39:52;;;;;;;6.97;3.40;;;;;;;-2.41;81.75;95272.31;5032533;28;20155;-50
2021/04/06 06:42:20;;;;;;;5.80;2.88;;;;;;;-2.37;79.94;95262.00;5032999;28;20045;-53
2021/04/06 06:44:48;;;;;;;6.90;3.08;;;;;;;-2.35;79.76;95262.50;5034647;28;20068;-50
2021/04/06 06:47:24;;;;;;;7.45;3.08;;;;;;;-2.30;80.11;95257.22;5032478;28;20207;-54
2021/04/06 06:49:53;;;;;;;7.82;3.08;;;;;;;-2.21;78.47;95254.81;5041346;28;20053;-49
2021/04/06 06:52:19;;;;;;;12.50;3.35;;;;;;;-2.20;78.46;95262.50;5042687;28;20099;-51
2021/04/06 06:54:46;;;;;;;6.28;2.90;;;;;;;-2.13;78.00;95262.22;5039811;28;20081;-54
2021/04/06 06:57:25;;;;;;;5.65;2.75;;;;;;;-2.20;76.15;95257.19;5033663;28;20499;-53
2021/04/06 06:59:52;;;;;;;4.00;2.70;;;;;;;-2.16;78.91;95268.06;5033295;28;20053;-55
2021/04/06 07:02:29;;;;;;;4.95;3.35;;;;;;;-2.20;79.42;95257.19;5034323;28;20045;-54
2021/04/06 07:05:13;;;;;;;7.75;2.70;;;;;;;-2.09;78.30;95257.19;5033629;28;20132;-53
2021/04/06 07:08:03;;;;;;;5.30;2.40;;;;;;;-2.14;78.63;95250.03;5032091;28;20104;-54
2021/04/06 07:10:33;;;;;;;5.82;2.17;;;;;;;-1.94;74.87;95257.16;5024938;28;20055;-55
2021/04/06 07:13:03;;;;;;;8.48;2.50;;;;;;;-1.90;72.07;95251.03;5019463;28;20498;-54
2021/04/06 07:15:30;;;;;;;3.85;2.08;;;;;;;-1.92;73.69;95250.53;5045494;28;20482;-54
2021/04/06 07:18:04;;;;;;;5.35;2.45;;;;;;;-1.67;72.60;95240.88;5043535;28;20052;-55
2021/04/06 07:20:33;;;;;;;4.85;2.03;;;;;;;-1.79;72.86;95249.13;5040819;28;20049;-54
2021/04/06 07:23:03;;;;;;;4.95;2.20;;;;;;;-1.72;73.61;95252.31;5035709;28;20052;-56
2021/04/06 07:25:31;;;;;;;6.53;2.63;;;;;;;-1.76;73.22;95261.84;5033719;28;20041;-56
2021/04/06 07:27:57;;;;;;;6.13;2.33;;;;;;;-1.74;75.09;95254.41;5042991;28;20042;-56
2021/04/06 07:30:24;;;;;;;6.45;2.13;;;;;;;-1.83;72.65;95269.28;5042406;28;20418;-56
2021/04/06 07:32:52;;;;;;;3.83;2.30;;;;;;;-1.71;71.39;95269.78;5050048;28;20060;-52
2021/04/06 07:35:19;;;;;;;4.78;2.30;;;;;;;-1.54;72.61;95266.03;5035099;28;20099;-56
2021/04/06 07:37:47;;;;;;;3.53;2.03;;;;;;;-1.56;71.49;95271.63;5029778;28;20048;-52
2021/04/06 07:40:17;;;;;;;4.88;2.30;;;;;;;-1.57;71.28;95270.00;5027646;28;20103;-54
2021/04/06 07:42:45;;;;;;;5.35;2.00;;;;;;;-1.90;74.97;95279.41;5050203;28;20053;-56
2021/04/06 07:45:24;;;;;;;7.78;2.53;;;;;;;-1.61;75.60;95273.47;5032183;28;20513;-55
2021/04/06 07:47:51;;;;;;;5.18;2.58;;;;;;;-1.54;73.47;95273.97;5033763;28;20049;-54
2021/04/06 07:50:39;;;;;;;4.00;2.00;;;;;;;-1.57;74.16;95267.34;5029663;28;20431;-54
2021/04/06 07:53:21;;;;;;;4.72;2.10;;;;;;;-1.54;73.16;95269.47;5030229;28;20049;-55
2021/04/06 07:55:49;;;;;;;6.07;2.28;;;;;;;-1.45;72.66;95269.69;5028419;28;20060;-54
2021/04/06 07:58:46;;;;;;;7.35;2.53;;;;;;;-1.45;71.81;95270.50;5030919;28;20445;-55
2021/04/06 08:01:34;;;;;;;5.80;2.38;;;;;;;-1.35;73.16;95267.00;5026996;28;20044;-54
2021/04/06 08:04:04;;;;;;;5.13;2.67;;;;;;;-1.34;73.66;95267.78;5044609;28;20124;-54
2021/04/06 08:06:47;;;;;;;5.85;2.33;;;;;;;-1.37;73.69;95274.44;5030854;28;20061;-55
2021/04/06 08:09:28;;;;;;;5.95;2.47;;;;;;;-1.26;73.88;95283.94;5031486;28;20163;-54
2021/04/06 08:12:05;;;;;;;4.60;2.30;;;;;;;-1.31;75.20;95277.84;5032326;28;20510;-54
2021/04/06 08:14:36;;;;;;;5.97;3.00;;;;;;;-1.15;75.00;95284.69;5033455;28;20124;-53
2021/04/06 08:20:11;;;;;;;10.50;2.55;;;;;;;-1.28;73.97;95283.41;5031320;28;20143;-52
2021/04/06 08:22:48;;;;;;;9.02;2.65;;;;;;;-1.33;72.96;95290.59;5032176;28;20057;-52
2021/04/06 08:25:21;;;;;;;8.38;2.40;;;;;;;-1.41;73.94;95284.00;5029458;28;20048;-51
2021/04/06 08:27:47;;;;;;;6.93;2.90;;;;;;;-1.25;74.73;95295.34;5042127;28;20045;-52
2021/04/06 08:30:26;;;;;;;9.60;2.63;;;;;;;-1.36;73.05;95289.31;5036062;28;20088;-55
2021/04/06 08:33:02;;;;;;;5.07;2.55;;;;;;;-1.26;74.71;95294.56;5034725;28;20144;-52
2021/04/06 08:40:56;;;;;;;9.57;2.80;;;;;;;-1.14;73.51;95299.53;5035729;28;20053;-52
2021/04/06 08:43:29;;;;;;;6.43;3.25;;;;;;;-1.10;74.32;95291.84;5039211;28;20048;-51
2021/04/06 08:45:58;;;;;;;6.70;2.80;;;;;;;-0.97;73.88;95288.56;5024706;28;20560;-52
2021/04/06 08:48:46;;;;;;;8.70;2.78;;;;;;;-0.97;71.99;95285.91;5038694;28;20056;-54
2021/04/06 08:51:19;;;;;;;5.35;2.38;;;;;;;-0.95;72.16;95281.13;5024007;28;20053;-53
2021/04/06 08:53:48;;;;;;;5.97;2.92;;;;;;;-0.93;73.24;95275.53;5028470;28;20049;-55
2021/04/06 08:56:17;;;;;;;6.28;2.50;;;;;;;-0.90;70.86;95278.44;5028088;28;20468;-52
2021/04/06 08:58:44;;;;;;;7.43;2.83;;;;;;;-0.93;73.09;95273.66;5024361;28;20383;-56
2021/04/06 09:01:11;;;;;;;5.00;2.78;;;;;;;-0.81;71.41;95276.78;5021095;28;20048;-54
2021/04/06 09:03:38;;;;;;;6.95;2.50;;;;;;;-0.75;73.02;95273.03;5024047;28;20450;-53
2021/04/06 09:06:10;;;;;;;6.50;2.40;;;;;;;-0.59;72.46;95273.69;5029395;28;20057;-54
2021/04/06 09:09:09;;;;;;;6.10;2.65;;;;;;;-0.65;71.05;95274.00;5022006;28;20390;-54
2021/04/06 09:11:37;;;;;;;5.97;2.72;;;;;;;-0.41;70.81;95266.91;4995091;28;20476;-56
2021/04/06 09:14:07;;;;;;;11.27;2.35;;;;;;;-0.61;74.10;95275.06;5029593;28;20053;-55
2021/04/06 09:16:35;;;;;;;5.40;2.70;;;;;;;-0.57;71.72;95271.56;5029516;28;20072;-56
2021/04/06 09:19:09;;;;;;;9.85;3.08;;;;;;;-0.40;71.02;95275.69;5029685;28;20053;-52
2021/04/06 09:21:37;;;;;;;6.22;2.97;;;;;;;-0.36;73.26;95268.72;5029794;28;20050;-55
2021/04/06 09:24:07;;;;;;;5.00;2.40;;;;;;;-0.48;71.18;95272.56;5034306;28;20431;-55
2021/04/06 09:26:34;;;;;;;6.93;2.80;;;;;;;-0.36;71.16;95280.16;5018279;28;20115;-54
2021/04/06 09:29:03;;;;;;;5.82;2.40;;;;;;;-0.36;70.64;95280.16;5035928;28;20073;-57
2021/04/06 09:31:30;;;;;;;15.88;3.38;;;;;;;-0.41;72.94;95274.09;5028868;28;20057;-52
2021/04/06 09:34:21;;;;;;;6.55;2.33;;;;;;;-0.31;70.30;95276.66;5026173;28;20467;-55
2021/04/06 09:36:57;;;;;;;8.90;2.70;;;;;;;-0.30;68.94;95268.41;5022736;28;21652;-50
2021/04/06 09:39:26;;;;;;;6.43;2.47;;;;;;;-0.49;71.27;95262.19;5022923;28;20053;-57
2021/04/06 09:41:53;;;;;;;6.18;2.50;;;;;;;-0.20;72.47;95262.19;5017916;28;20050;-52
2021/04/06 09:44:23;;;;;;;6.03;2.50;;;;;;;-0.29;72.45;95255.94;5026993;28;20045;-52
2021/04/06 09:46:53;;;;;;;7.65;2.40;;;;;;;0.18;69.44;95257.06;5027905;28;20053;-54
2021/04/06 09:49:20;;;;;;;5.47;2.53;;;;;;;0.01;72.02;95254.06;5023546;28;20506;-56
2021/04/06 09:52:02;;;;;;;7.07;2.72;;;;;;;0.14;68.91;95259.50;5020150;28;20427;-54
2021/04/06 09:54:33;;;;;;;9.75;2.85;;;;;;;0.20;68.49;95252.25;5025214;28;20052;-56
2021/04/06 09:57:05;;;;;;;8.27;2.58;;;;;;;0.31;69.00;95268.88;5025589;28;20479;-57
2021/04/06 09:59:32;;;;;;;6.80;2.77;;;;;;;0.28;68.54;95246.28;5025830;28;20544;-57
2021/04/06 10:01:59;;;;;;;6.70;2.45;;;;;;;0.41;68.22;95244.81;5025937;28;20684;-56
2021/04/06 10:04:34;;;;;;;9.45;2.92;;;;;;;0.56;70.22;95244.66;5024195;28;20407;-53
2021/04/06 10:07:20;;;;;;;8.38;2.90;;;;;;;0.64;67.18;95249.31;5028387;28;20418;-51
2021/04/06 10:09:58;;;;;;;4.97;2.63;;;;;;;0.73;66.49;95246.03;5032348;28;20060;-51
2021/04/06 10:12:31;;;;;;;4.32;2.53;;;;;;;1.21;65.96;95240.59;5036112;28;20053;-54
2021/04/06 10:14:58;;;;;;;6.32;2.20;;;;;;;1.32;65.75;95234.78;5028072;28;20129;-53
2021/04/06 10:17:38;;;;;;;4.50;2.08;;;;;;;1.50;65.24;95235.06;5025821;28;20057;-51
2021/04/06 10:20:21;;;;;;;4.32;2.42;;;;;;;1.27;62.54;95220.75;5026613;28;20057;-51
2021/04/06 10:22:53;;;;;;;5.05;2.28;;;;;;;1.29;66.95;95229.25;5006318;28;20454;-52
2021/04/06 10:25:27;;;;;;;7.07;2.40;;;;;;;1.03;66.09;95232.28;5030224;28;20056;-52
2021/04/06 10:28:02;;;;;;;4.78;2.92;;;;;;;1.03;64.46;95224.28;5031154;28;20049;-50
2021/04/06 10:30:38;;;;;;;4.43;2.38;;;;;;;0.82;67.75;95231.00;5030879;28;20141;-55
2021/04/06 10:33:12;;;;;;;5.70;2.47;;;;;;;0.88;66.56;95232.53;5030059;28;20073;-50
2021/04/06 10:35:45;;;;;;;7.90;2.58;;;;;;;0.96;66.50;95237.19;5032132;28;20053;-51
2021/04/06 10:38:19;;;;;;;6.75;2.60;;;;;;;0.87;67.74;95233.59;5028199;28;20661;-55
2021/04/06 10:40:46;;;;;;;6.05;2.00;;;;;;;0.63;68.29;95230.97;5018876;28;20050;-49
2021/04/06 10:43:16;;;;;;;4.20;2.00;;;;;;;0.62;65.36;95221.41;5029315;28;20096;-56
2021/04/06 10:45:47;;;;;;;5.68;2.22;;;;;;;0.40;67.25;95221.97;5029516;28;20230;-56
2021/04/06 10:48:20;;;;;;;6.97;2.35;;;;;;;0.51;66.70;95215.41;5032617;28;20057;-56
2021/04/06 10:50:51;;;;;;;5.10;2.57;;;;;;;0.41;67.30;95218.22;5040830;28;20049;-54
2021/04/06 10:53:22;;;;;;;5.07;2.50;;;;;;;0.64;67.74;95208.59;5029608;28;20048;-54
2021/04/06 10:55:56;;;;;;;8.00;2.42;;;;;;;0.90;70.03;95207.16;5030458;28;20049;-53
2021/04/06 10:58:26;;;;;;;7.35;3.08;;;;;;;0.45;70.25;95208.56;5039239;28;20057;-54
2021/04/06 11:01:14;;;;;;;4.25;2.15;;;;;;;0.80;66.43;95187.88;5052507;22;20049;-56
2021/04/06 11:03:46;;;;;;;5.50;2.65;;;;;;;0.98;65.05;95196.97;5011219;28;20056;-57
2021/04/06 11:06:29;;;;;;;7.55;2.90;;;;;;;0.72;69.69;95199.97;5011715;28;20070;-53
2021/04/06 11:08:57;;;;;;;6.53;2.13;;;;;;;0.21;71.87;95200.63;5010811;28;20042;-55
2021/04/06 11:11:34;;;;;;;4.95;2.45;;;;;;;0.58;69.09;95188.44;5009347;28;20054;-52
2021/04/06 11:14:09;;;;;;;7.25;2.78;;;;;;;0.60;70.09;95186.31;5012751;28;20041;-55
2021/04/06 11:16:37;;;;;;;5.25;2.40;;;;;;;0.88;68.20;95180.03;5010875;28;20076;-47
2021/04/06 11:19:09;;;;;;;6.68;2.10;;;;;;;0.91;67.44;95174.16;5012785;28;20395;-54
2021/04/06 11:21:42;;;;;;;6.93;2.65;;;;;;;1.75;68.81;95167.16;5011084;28;20054;-57
2021/04/06 11:24:09;;;;;;;;;;;;;;;2.20;63.17;95162.84;5014130;28;20045;-57
2021/04/06 11:26:36;;;;;;;7.10;3.25;;;;;;;2.51;61.53;95163.00;5009821;28;19936;-47
2021/04/06 11:29:07;;;;;;;4.65;2.38;;;;;;;2.11;62.91;95151.25;5012904;28;20072;-53
2021/04/06 11:31:38;;;;;;;5.70;2.40;;;;;;;2.30;61.37;95140.47;5012987;28;20550;-53
2021/04/06 11:34:06;;;;;;;6.43;2.65;;;;;;;2.18;60.72;95133.00;5011478;28;20069;-52
2021/04/06 11:36:34;;;;;;;5.25;2.20;;;;;;;1.94;60.78;95148.41;5012684;28;20503;-59
2021/04/06 11:39:01;;;;;;;8.82;2.67;;;;;;;1.87;63.27;95154.13;5012546;28;20049;-52
2021/04/06 11:41:28;;;;;;;5.35;2.40;;;;;;;1.48;63.00;95146.59;5012454;28;20060;-49
2021/04/06 11:43:54;;;;;;;5.18;2.83;;;;;;;1.73;62.78;95161.34;5012916;28;20100;-53
2021/04/06 11:46:21;;;;;;;4.75;2.00;;;;;;;1.68;61.31;95150.75;5010901;28;20129;-54
2021/04/06 11:48:47;;;;;;;5.93;2.50;;;;;;;1.54;62.18;95140.09;5016824;28;20053;-50
2021/04/06 11:51:16;;;;;;;5.07;2.22;;;;;;;1.23;62.25;95145.13;5012397;28;20061;-50
2021/04/06 11:53:42;;;;;;;7.15;2.30;;;;;;;0.99;63.63;95148.72;4998478;28;20161;-48
2021/04/06 11:56:09;;;;;;;6.97;2.40;;;;;;;0.31;72.34;95149.94;5012381;28;20100;-53
2021/04/06 11:58:36;;;;;;;3.53;1.90;;;;;;;-0.37;72.79;95147.56;5013220;28;20458;-50
2021/04/06 12:01:22;;;;;;;6.60;2.28;;;;;;;-0.49;77.34;95150.59;5000095;28;20133;-55
2021/04/06 12:03:49;;;;;;;6.10;2.80;;;;;;;-0.53;82.20;95157.53;5016306;28;20049;-55